sensor_id;sensor_type;location;lat;lon;timestamp;temperature;humidity
66710;DHT22;53624;0.000;0.000;2023-07-29T00:01:31;22.40;99.90
66710;DHT22;53624;0.000;0.000;2023-07-29T00:03:58;22.50;99.90
66710;DHT22;53624;0.000;0.000;2023-07-29T00:06:26;22.60;99.90
66710;DHT22;53624;0.000;0.000;2023-07-29T00:08:53;22.60;99.90
66710;DHT22;53624;0.000;0.000;2023-07-29T00:11:21;22.50;99.90
66710;DHT22;53624;0.000;0.000;2023-07-29T00:13:48;22.40;99.90
66710;DHT22;53624;0.000;0.000;2023-07-29T00:16:18;22.50;99.90
66710;DHT22;53624;0.000;0.000;2023-07-29T00:18:48;22.50;99.90
66710;DHT22;53624;0.000;0.000;2023-07-29T00:21:15;22.50;99.90
66710;DHT22;53624;0.000;0.000;2023-07-29T00:23:42;22.50;99.90
66710;DHT22;53624;0.000;0.000;2023-07-29T00:26:10;22.50;99.90
66710;DHT22;53624;0.000;0.000;2023-07-29T00:28:37;22.40;99.90
66710;DHT22;53624;0.000;0.000;2023-07-29T00:31:05;22.40;99.90
66710;DHT22;53624;0.000;0.000;2023-07-29T00:33:35;22.30;99.90
66710;DHT22;53624;0.000;0.000;2023-07-29T00:36:03;22.30;99.90
66710;DHT22;53624;0.000;0.000;2023-07-29T00:38:31;22.30;99.90
66710;DHT22;53624;0.000;0.000;2023-07-29T00:40:58;22.30;99.90
66710;DHT22;53624;0.000;0.000;2023-07-29T00:43:27;22.30;99.90
66710;DHT22;53624;0.000;0.000;2023-07-29T00:45:54;22.20;99.90
66710;DHT22;53624;0.000;0.000;2023-07-29T00:48:23;22.20;99.90
66710;DHT22;53624;0.000;0.000;2023-07-29T00:50:54;22.30;99.90
66710;DHT22;53624;0.000;0.000;2023-07-29T00:53:21;22.20;99.90
66710;DHT22;53624;0.000;0.000;2023-07-29T00:55:50;22.10;99.90
66710;DHT22;53624;0.000;0.000;2023-07-29T00:58:17;22.00;99.90
66710;DHT22;53624;0.000;0.000;2023-07-29T01:00:45;21.90;99.90
66710;DHT22;53624;0.000;0.000;2023-07-29T01:03:12;21.80;99.90
66710;DHT22;53624;0.000;0.000;2023-07-29T01:05:42;21.70;99.90
66710;DHT22;53624;0.000;0.000;2023-07-29T01:08:16;21.70;99.90
66710;DHT22;53624;0.000;0.000;2023-07-29T01:10:50;21.70;99.90
66710;DHT22;53624;0.000;0.000;2023-07-29T01:13:21;21.80;99.90
66710;DHT22;53624;0.000;0.000;2023-07-29T01:15:51;21.80;99.90
66710;DHT22;53624;0.000;0.000;2023-07-29T01:18:22;21.80;99.90
66710;DHT22;53624;0.000;0.000;2023-07-29T01:20:51;21.70;99.90
66710;DHT22;53624;0.000;0.000;2023-07-29T01:23:24;21.80;99.90
66710;DHT22;53624;0.000;0.000;2023-07-29T01:25:52;21.80;99.90
66710;DHT22;53624;0.000;0.000;2023-07-29T01:28:19;21.70;99.90
66710;DHT22;53624;0.000;0.000;2023-07-29T01:30:48;21.70;99.90
66710;DHT22;53624;0.000;0.000;2023-07-29T01:33:18;21.80;99.90
66710;DHT22;53624;0.000;0.000;2023-07-29T01:35:47;21.70;99.90
66710;DHT22;53624;0.000;0.000;2023-07-29T01:38:17;21.70;99.90
66710;DHT22;53624;0.000;0.000;2023-07-29T01:40:46;21.70;99.90
66710;DHT22;53624;0.000;0.000;2023-07-29T01:43:14;21.60;99.90
66710;DHT22;53624;0.000;0.000;2023-07-29T01:45:42;21.60;99.90
66710;DHT22;53624;0.000;0.000;2023-07-29T01:48:10;21.50;99.90
66710;DHT22;53624;0.000;0.000;2023-07-29T01:50:37;21.60;99.90
66710;DHT22;53624;0.000;0.000;2023-07-29T01:53:05;21.50;99.90
66710;DHT22;53624;0.000;0.000;2023-07-29T01:55:32;21.50;99.90
66710;DHT22;53624;0.000;0.000;2023-07-29T01:58:01;21.50;99.90
66710;DHT22;53624;0.000;0.000;2023-07-29T02:00:29;21.50;99.90
66710;DHT22;53624;0.000;0.000;2023-07-29T02:02:56;21.50;99.90
66710;DHT22;53624;0.000;0.000;2023-07-29T02:05:24;21.50;99.90
66710;DHT22;53624;0.000;0.000;2023-07-29T02:07:51;21.50;99.90
66710;DHT22;53624;0.000;0.000;2023-07-29T02:10:19;21.50;99.90
66710;DHT22;53624;0.000;0.000;2023-07-29T02:12:46;21.50;99.90
66710;DHT22;53624;0.000;0.000;2023-07-29T02:15:15;21.60;99.90
66710;DHT22;53624;0.000;0.000;2023-07-29T02:17:42;21.50;99.90
66710;DHT22;53624;0.000;0.000;2023-07-29T02:20:10;21.50;99.90
66710;DHT22;53624;0.000;0.000;2023-07-29T02:22:38;21.40;99.90
66710;DHT22;53624;0.000;0.000;2023-07-29T02:25:05;21.30;99.90
66710;DHT22;53624;0.000;0.000;2023-07-29T02:27:33;21.40;99.90
66710;DHT22;53624;0.000;0.000;2023-07-29T02:30:00;21.40;99.90
66710;DHT22;53624;0.000;0.000;2023-07-29T02:32:29;21.30;99.90
66710;DHT22;53624;0.000;0.000;2023-07-29T02:34:57;21.20;99.90
66710;DHT22;53624;0.000;0.000;2023-07-29T02:37:25;21.20;99.90
66710;DHT22;53624;0.000;0.000;2023-07-29T02:39:53;21.30;99.90
66710;DHT22;53624;0.000;0.000;2023-07-29T02:42:20;21.20;99.90
66710;DHT22;53624;0.000;0.000;2023-07-29T02:44:48;21.20;99.90
66710;DHT22;53624;0.000;0.000;2023-07-29T02:47:15;21.10;99.90
66710;DHT22;53624;0.000;0.000;2023-07-29T02:49:44;21.10;99.90
66710;DHT22;53624;0.000;0.000;2023-07-29T02:52:12;20.90;99.90
66710;DHT22;53624;0.000;0.000;2023-07-29T02:54:39;20.90;99.90
66710;DHT22;53624;0.000;0.000;2023-07-29T02:57:07;20.90;99.90
66710;DHT22;53624;0.000;0.000;2023-07-29T02:59:34;21.00;99.90
66710;DHT22;53624;0.000;0.000;2023-07-29T03:02:02;20.70;99.90
66710;DHT22;53624;0.000;0.000;2023-07-29T03:04:29;20.70;99.90
66710;DHT22;53624;0.000;0.000;2023-07-29T03:06:58;20.80;99.90
66710;DHT22;53624;0.000;0.000;2023-07-29T03:09:27;20.70;99.90
66710;DHT22;53624;0.000;0.000;2023-07-29T03:11:54;20.70;99.90
66710;DHT22;53624;0.000;0.000;2023-07-29T03:14:22;20.70;99.90
66710;DHT22;53624;0.000;0.000;2023-07-29T03:16:50;20.60;99.90
66710;DHT22;53624;0.000;0.000;2023-07-29T03:19:18;20.40;99.90
66710;DHT22;53624;0.000;0.000;2023-07-29T03:21:46;20.40;99.90
66710;DHT22;53624;0.000;0.000;2023-07-29T03:24:15;20.30;99.90
66710;DHT22;53624;0.000;0.000;2023-07-29T03:26:42;20.30;99.90
66710;DHT22;53624;0.000;0.000;2023-07-29T03:29:10;20.40;99.90
66710;DHT22;53624;0.000;0.000;2023-07-29T03:31:38;20.40;99.90
66710;DHT22;53624;0.000;0.000;2023-07-29T03:34:05;20.40;99.90
66710;DHT22;53624;0.000;0.000;2023-07-29T03:36:33;20.40;99.90
66710;DHT22;53624;0.000;0.000;2023-07-29T03:39:01;20.40;99.90
66710;DHT22;53624;0.000;0.000;2023-07-29T03:41:31;20.40;99.90
66710;DHT22;53624;0.000;0.000;2023-07-29T03:43:58;20.40;99.90
66710;DHT22;53624;0.000;0.000;2023-07-29T03:46:26;20.30;99.90
66710;DHT22;53624;0.000;0.000;2023-07-29T03:48:53;20.20;99.90
66710;DHT22;53624;0.000;0.000;2023-07-29T03:51:21;20.00;99.90
66710;DHT22;53624;0.000;0.000;2023-07-29T03:53:50;20.00;99.90
66710;DHT22;53624;0.000;0.000;2023-07-29T03:56:17;20.10;99.90
66710;DHT22;53624;0.000;0.000;2023-07-29T03:58:46;20.10;99.90
66710;DHT22;53624;0.000;0.000;2023-07-29T04:01:15;19.80;99.90
66710;DHT22;53624;0.000;0.000;2023-07-29T04:03:42;19.60;99.90
66710;DHT22;53624;0.000;0.000;2023-07-29T04:06:10;19.50;99.90
66710;DHT22;53624;0.000;0.000;2023-07-29T04:08:37;19.40;99.90
66710;DHT22;53624;0.000;0.000;2023-07-29T04:11:05;19.50;99.90
66710;DHT22;53624;0.000;0.000;2023-07-29T04:13:32;20.00;99.90
66710;DHT22;53624;0.000;0.000;2023-07-29T04:16:01;20.00;99.90
66710;DHT22;53624;0.000;0.000;2023-07-29T04:18:29;20.10;99.90
66710;DHT22;53624;0.000;0.000;2023-07-29T04:20:56;20.20;99.90
66710;DHT22;53624;0.000;0.000;2023-07-29T04:23:24;20.10;99.90
66710;DHT22;53624;0.000;0.000;2023-07-29T04:25:51;20.00;99.90
66710;DHT22;53624;0.000;0.000;2023-07-29T04:28:19;19.90;99.90
66710;DHT22;53624;0.000;0.000;2023-07-29T04:30:46;19.90;99.90
66710;DHT22;53624;0.000;0.000;2023-07-29T04:33:15;19.90;99.90
66710;DHT22;53624;0.000;0.000;2023-07-29T04:35:42;19.80;99.90
66710;DHT22;53624;0.000;0.000;2023-07-29T04:38:10;19.80;99.90
66710;DHT22;53624;0.000;0.000;2023-07-29T04:40:37;19.80;99.90
66710;DHT22;53624;0.000;0.000;2023-07-29T04:43:05;19.90;99.90
66710;DHT22;53624;0.000;0.000;2023-07-29T04:45:33;19.90;99.90
66710;DHT22;53624;0.000;0.000;2023-07-29T04:48:01;19.90;99.90
66710;DHT22;53624;0.000;0.000;2023-07-29T04:50:30;19.60;99.90
66710;DHT22;53624;0.000;0.000;2023-07-29T04:52:57;19.30;99.90
66710;DHT22;53624;0.000;0.000;2023-07-29T04:55:25;19.10;99.90
66710;DHT22;53624;0.000;0.000;2023-07-29T04:57:52;19.10;99.90
66710;DHT22;53624;0.000;0.000;2023-07-29T05:00:19;19.00;99.90
66710;DHT22;53624;0.000;0.000;2023-07-29T05:02:47;19.00;99.90
66710;DHT22;53624;0.000;0.000;2023-07-29T05:05:14;19.00;99.90
66710;DHT22;53624;0.000;0.000;2023-07-29T05:07:44;19.20;99.90
66710;DHT22;53624;0.000;0.000;2023-07-29T05:10:11;19.30;99.90
66710;DHT22;53624;0.000;0.000;2023-07-29T05:12:38;19.50;99.90
66710;DHT22;53624;0.000;0.000;2023-07-29T05:15:06;19.50;99.90
66710;DHT22;53624;0.000;0.000;2023-07-29T05:17:34;19.60;99.90
66710;DHT22;53624;0.000;0.000;2023-07-29T05:20:02;19.70;99.90
66710;DHT22;53624;0.000;0.000;2023-07-29T05:22:30;19.80;99.90
66710;DHT22;53624;0.000;0.000;2023-07-29T05:25:00;19.90;99.90
66710;DHT22;53624;0.000;0.000;2023-07-29T05:27:28;19.90;99.90
66710;DHT22;53624;0.000;0.000;2023-07-29T05:29:55;20.00;99.90
66710;DHT22;53624;0.000;0.000;2023-07-29T05:32:23;20.00;99.90
66710;DHT22;53624;0.000;0.000;2023-07-29T05:34:51;20.10;99.90
66710;DHT22;53624;0.000;0.000;2023-07-29T05:37:18;20.10;99.90
66710;DHT22;53624;0.000;0.000;2023-07-29T05:39:46;20.20;99.90
66710;DHT22;53624;0.000;0.000;2023-07-29T05:42:15;20.30;99.90
66710;DHT22;53624;0.000;0.000;2023-07-29T05:44:43;20.40;99.90
66710;DHT22;53624;0.000;0.000;2023-07-29T05:47:12;20.40;99.90
66710;DHT22;53624;0.000;0.000;2023-07-29T05:49:40;20.40;99.90
66710;DHT22;53624;0.000;0.000;2023-07-29T05:52:07;20.50;99.90
66710;DHT22;53624;0.000;0.000;2023-07-29T05:54:35;20.60;99.90
66710;DHT22;53624;0.000;0.000;2023-07-29T05:57:03;20.70;99.90
66710;DHT22;53624;0.000;0.000;2023-07-29T05:59:32;20.80;99.90
66710;DHT22;53624;0.000;0.000;2023-07-29T06:02:00;20.90;99.90
66710;DHT22;53624;0.000;0.000;2023-07-29T06:04:28;21.10;99.90
66710;DHT22;53624;0.000;0.000;2023-07-29T06:06:56;21.30;99.90
66710;DHT22;53624;0.000;0.000;2023-07-29T06:09:24;21.40;99.90
66710;DHT22;53624;0.000;0.000;2023-07-29T06:11:52;21.40;99.90
66710;DHT22;53624;0.000;0.000;2023-07-29T06:14:20;21.40;99.90
66710;DHT22;53624;0.000;0.000;2023-07-29T06:16:49;21.40;99.90
66710;DHT22;53624;0.000;0.000;2023-07-29T06:19:16;21.40;99.90
66710;DHT22;53624;0.000;0.000;2023-07-29T06:21:43;21.70;99.90
66710;DHT22;53624;0.000;0.000;2023-07-29T06:24:11;22.10;99.90
66710;DHT22;53624;0.000;0.000;2023-07-29T06:26:38;22.30;99.90
66710;DHT22;53624;0.000;0.000;2023-07-29T06:29:06;22.40;99.90
66710;DHT22;53624;0.000;0.000;2023-07-29T06:31:33;22.50;99.90
66710;DHT22;53624;0.000;0.000;2023-07-29T06:34:02;22.90;99.90
66710;DHT22;53624;0.000;0.000;2023-07-29T06:36:30;23.40;99.90
66710;DHT22;53624;0.000;0.000;2023-07-29T06:38:59;23.50;99.90
66710;DHT22;53624;0.000;0.000;2023-07-29T06:41:27;23.80;99.90
66710;DHT22;53624;0.000;0.000;2023-07-29T06:43:54;23.80;99.90
66710;DHT22;53624;0.000;0.000;2023-07-29T06:46:22;23.50;99.90
66710;DHT22;53624;0.000;0.000;2023-07-29T06:48:50;23.20;99.90
66710;DHT22;53624;0.000;0.000;2023-07-29T06:51:19;23.40;99.90
66710;DHT22;53624;0.000;0.000;2023-07-29T06:53:46;23.30;99.90
66710;DHT22;53624;0.000;0.000;2023-07-29T06:56:14;23.10;99.90
66710;DHT22;53624;0.000;0.000;2023-07-29T06:58:41;22.80;99.90
66710;DHT22;53624;0.000;0.000;2023-07-29T07:01:08;22.90;99.90
66710;DHT22;53624;0.000;0.000;2023-07-29T07:03:36;23.00;99.90
66710;DHT22;53624;0.000;0.000;2023-07-29T07:06:03;23.00;99.90
66710;DHT22;53624;0.000;0.000;2023-07-29T07:08:33;23.10;99.90
66710;DHT22;53624;0.000;0.000;2023-07-29T07:11:00;23.70;99.90
66710;DHT22;53624;0.000;0.000;2023-07-29T07:13:28;24.10;99.90
66710;DHT22;53624;0.000;0.000;2023-07-29T07:15:55;24.00;99.90
66710;DHT22;53624;0.000;0.000;2023-07-29T07:18:23;24.10;99.90
66710;DHT22;53624;0.000;0.000;2023-07-29T07:20:50;24.60;99.90
66710;DHT22;53624;0.000;0.000;2023-07-29T07:23:18;24.40;99.90
66710;DHT22;53624;0.000;0.000;2023-07-29T07:25:47;24.10;99.90
66710;DHT22;53624;0.000;0.000;2023-07-29T07:28:14;23.90;99.90
66710;DHT22;53624;0.000;0.000;2023-07-29T07:30:42;24.60;99.90
66710;DHT22;53624;0.000;0.000;2023-07-29T07:33:09;25.40;99.90
66710;DHT22;53624;0.000;0.000;2023-07-29T07:35:37;26.40;99.90
66710;DHT22;53624;0.000;0.000;2023-07-29T07:38:04;25.90;99.90
66710;DHT22;53624;0.000;0.000;2023-07-29T07:40:33;25.90;99.90
66710;DHT22;53624;0.000;0.000;2023-07-29T07:43:02;26.60;99.90
66710;DHT22;53624;0.000;0.000;2023-07-29T07:45:30;26.10;99.90
66710;DHT22;53624;0.000;0.000;2023-07-29T07:47:59;26.50;99.90
66710;DHT22;53624;0.000;0.000;2023-07-29T07:50:28;27.20;99.50
66710;DHT22;53624;0.000;0.000;2023-07-29T07:52:56;26.80;99.00
66710;DHT22;53624;0.000;0.000;2023-07-29T07:55:23;27.30;99.60
66710;DHT22;53624;0.000;0.000;2023-07-29T07:57:50;27.90;97.40
66710;DHT22;53624;0.000;0.000;2023-07-29T08:00:19;27.00;98.30
66710;DHT22;53624;0.000;0.000;2023-07-29T08:02:47;26.60;98.40
66710;DHT22;53624;0.000;0.000;2023-07-29T08:05:14;26.50;99.50
66710;DHT22;53624;0.000;0.000;2023-07-29T08:07:42;26.00;99.90
66710;DHT22;53624;0.000;0.000;2023-07-29T08:10:10;25.70;99.90
66710;DHT22;53624;0.000;0.000;2023-07-29T08:12:37;25.40;99.90
66710;DHT22;53624;0.000;0.000;2023-07-29T08:15:05;25.70;99.90
66710;DHT22;53624;0.000;0.000;2023-07-29T08:17:34;26.30;99.90
66710;DHT22;53624;0.000;0.000;2023-07-29T08:20:02;26.50;99.50
66710;DHT22;53624;0.000;0.000;2023-07-29T08:22:29;26.80;99.90
66710;DHT22;53624;0.000;0.000;2023-07-29T08:24:57;26.60;98.50
66710;DHT22;53624;0.000;0.000;2023-07-29T08:27:24;26.40;98.90
66710;DHT22;53624;0.000;0.000;2023-07-29T08:29:53;26.00;99.60
66710;DHT22;53624;0.000;0.000;2023-07-29T08:32:21;25.90;99.40
66710;DHT22;53624;0.000;0.000;2023-07-29T08:34:50;26.50;99.40
66710;DHT22;53624;0.000;0.000;2023-07-29T08:37:17;26.50;98.80
66710;DHT22;53624;0.000;0.000;2023-07-29T08:39:45;26.50;98.80
66710;DHT22;53624;0.000;0.000;2023-07-29T08:42:12;26.60;98.80
66710;DHT22;53624;0.000;0.000;2023-07-29T08:44:40;26.80;98.30
66710;DHT22;53624;0.000;0.000;2023-07-29T08:47:08;26.80;98.60
66710;DHT22;53624;0.000;0.000;2023-07-29T08:49:36;26.90;99.00
66710;DHT22;53624;0.000;0.000;2023-07-29T08:52:05;26.90;98.40
66710;DHT22;53624;0.000;0.000;2023-07-29T08:54:34;27.00;99.10
66710;DHT22;53624;0.000;0.000;2023-07-29T08:57:02;27.10;97.10
66710;DHT22;53624;0.000;0.000;2023-07-29T08:59:29;26.90;98.30
66710;DHT22;53624;0.000;0.000;2023-07-29T09:01:57;26.70;98.10
66710;DHT22;53624;0.000;0.000;2023-07-29T09:04:25;27.00;98.50
66710;DHT22;53624;0.000;0.000;2023-07-29T09:06:54;27.10;97.70
66710;DHT22;53624;0.000;0.000;2023-07-29T09:09:24;27.30;97.50
66710;DHT22;53624;0.000;0.000;2023-07-29T09:11:52;27.70;97.10
66710;DHT22;53624;0.000;0.000;2023-07-29T09:14:19;28.20;96.00
66710;DHT22;53624;0.000;0.000;2023-07-29T09:16:47;27.50;95.20
66710;DHT22;53624;0.000;0.000;2023-07-29T09:19:14;27.70;95.80
66710;DHT22;53624;0.000;0.000;2023-07-29T09:21:42;27.80;95.70
66710;DHT22;53624;0.000;0.000;2023-07-29T09:24:09;27.60;95.90
66710;DHT22;53624;0.000;0.000;2023-07-29T09:26:40;27.90;95.60
66710;DHT22;53624;0.000;0.000;2023-07-29T09:29:08;28.00;97.30
66710;DHT22;53624;0.000;0.000;2023-07-29T09:31:35;27.70;94.10
66710;DHT22;53624;0.000;0.000;2023-07-29T09:34:04;27.50;95.20
66710;DHT22;53624;0.000;0.000;2023-07-29T09:36:32;27.40;94.90
66710;DHT22;53624;0.000;0.000;2023-07-29T09:39:00;27.30;95.30
66710;DHT22;53624;0.000;0.000;2023-07-29T09:41:28;27.40;95.70
66710;DHT22;53624;0.000;0.000;2023-07-29T09:43:58;27.30;95.20
66710;DHT22;53624;0.000;0.000;2023-07-29T09:46:31;27.30;95.00
66710;DHT22;53624;0.000;0.000;2023-07-29T09:49:00;27.10;95.80
66710;DHT22;53624;0.000;0.000;2023-07-29T09:51:43;26.90;97.80
66710;DHT22;53624;0.000;0.000;2023-07-29T09:54:11;27.10;97.40
66710;DHT22;53624;0.000;0.000;2023-07-29T09:56:41;27.10;97.20
66710;DHT22;53624;0.000;0.000;2023-07-29T09:59:11;27.00;97.70
66710;DHT22;53624;0.000;0.000;2023-07-29T10:01:39;27.30;98.00
66710;DHT22;53624;0.000;0.000;2023-07-29T10:04:07;27.70;97.90
66710;DHT22;53624;0.000;0.000;2023-07-29T10:06:35;28.10;97.60
66710;DHT22;53624;0.000;0.000;2023-07-29T10:09:07;28.30;96.60
66710;DHT22;53624;0.000;0.000;2023-07-29T10:11:52;28.20;95.30
66710;DHT22;53624;0.000;0.000;2023-07-29T10:14:22;28.10;96.80
66710;DHT22;53624;0.000;0.000;2023-07-29T10:16:50;28.40;95.80
66710;DHT22;53624;0.000;0.000;2023-07-29T10:19:18;28.70;96.00
66710;DHT22;53624;0.000;0.000;2023-07-29T10:21:45;28.70;95.20
66710;DHT22;53624;0.000;0.000;2023-07-29T10:24:15;28.90;97.10
66710;DHT22;53624;0.000;0.000;2023-07-29T10:26:46;28.90;94.50
66710;DHT22;53624;0.000;0.000;2023-07-29T10:29:14;28.90;98.20
66710;DHT22;53624;0.000;0.000;2023-07-29T10:31:43;29.10;95.40
66710;DHT22;53624;0.000;0.000;2023-07-29T10:34:11;28.90;95.90
66710;DHT22;53624;0.000;0.000;2023-07-29T10:36:39;28.60;95.60
66710;DHT22;53624;0.000;0.000;2023-07-29T10:39:07;28.70;97.20
66710;DHT22;53624;0.000;0.000;2023-07-29T10:41:56;28.70;95.50
66710;DHT22;53624;0.000;0.000;2023-07-29T10:47:23;28.40;96.40
66710;DHT22;53624;0.000;0.000;2023-07-29T10:49:52;28.60;95.80
66710;DHT22;53624;0.000;0.000;2023-07-29T10:55:22;28.60;95.20
66710;DHT22;53624;0.000;0.000;2023-07-29T10:57:50;28.80;94.80
66710;DHT22;53624;0.000;0.000;2023-07-29T11:00:19;29.00;95.50
66710;DHT22;53624;0.000;0.000;2023-07-29T11:02:56;29.10;96.00
66710;DHT22;53624;0.000;0.000;2023-07-29T11:05:24;28.90;95.30
66710;DHT22;53624;0.000;0.000;2023-07-29T11:07:51;28.60;95.60
66710;DHT22;53624;0.000;0.000;2023-07-29T11:10:19;28.60;95.80
66710;DHT22;53624;0.000;0.000;2023-07-29T11:12:46;28.70;95.10
66710;DHT22;53624;0.000;0.000;2023-07-29T11:15:18;28.50;95.90
66710;DHT22;53624;0.000;0.000;2023-07-29T11:17:46;28.10;95.50
66710;DHT22;53624;0.000;0.000;2023-07-29T11:20:16;27.80;95.40
66710;DHT22;53624;0.000;0.000;2023-07-29T11:22:43;27.90;96.60
66710;DHT22;53624;0.000;0.000;2023-07-29T11:25:11;28.00;96.30
66710;DHT22;53624;0.000;0.000;2023-07-29T11:27:39;28.10;96.70
66710;DHT22;53624;0.000;0.000;2023-07-29T11:30:07;28.00;97.10
66710;DHT22;53624;0.000;0.000;2023-07-29T11:32:36;27.80;96.00
66710;DHT22;53624;0.000;0.000;2023-07-29T11:35:04;28.00;96.00
66710;DHT22;53624;0.000;0.000;2023-07-29T11:37:34;28.40;95.60
66710;DHT22;53624;0.000;0.000;2023-07-29T11:40:02;28.50;95.80
66710;DHT22;53624;0.000;0.000;2023-07-29T11:42:31;28.70;96.50
66710;DHT22;53624;0.000;0.000;2023-07-29T11:44:59;28.90;95.20
66710;DHT22;53624;0.000;0.000;2023-07-29T11:47:26;28.90;95.60
66710;DHT22;53624;0.000;0.000;2023-07-29T11:49:54;29.00;95.90
66710;DHT22;53624;0.000;0.000;2023-07-29T11:52:27;29.00;94.10
66710;DHT22;53624;0.000;0.000;2023-07-29T11:54:56;28.90;94.40
66710;DHT22;53624;0.000;0.000;2023-07-29T11:57:24;28.90;94.50
66710;DHT22;53624;0.000;0.000;2023-07-29T11:59:52;28.80;93.80
66710;DHT22;53624;0.000;0.000;2023-07-29T12:02:20;28.80;93.70
66710;DHT22;53624;0.000;0.000;2023-07-29T12:04:48;28.80;93.50
66710;DHT22;53624;0.000;0.000;2023-07-29T12:07:16;28.90;94.50
66710;DHT22;53624;0.000;0.000;2023-07-29T12:09:45;29.10;94.90
66710;DHT22;53624;0.000;0.000;2023-07-29T12:12:15;29.20;93.70
66710;DHT22;53624;0.000;0.000;2023-07-29T12:14:43;29.10;92.20
66710;DHT22;53624;0.000;0.000;2023-07-29T12:17:11;29.50;92.10
66710;DHT22;53624;0.000;0.000;2023-07-29T12:19:39;29.60;92.60
66710;DHT22;53624;0.000;0.000;2023-07-29T12:22:07;29.90;92.40
66710;DHT22;53624;0.000;0.000;2023-07-29T12:24:35;30.00;91.40
66710;DHT22;53624;0.000;0.000;2023-07-29T12:27:03;29.90;92.10
66710;DHT22;53624;0.000;0.000;2023-07-29T12:29:32;30.10;92.40
66710;DHT22;53624;0.000;0.000;2023-07-29T12:32:00;30.10;92.00
66710;DHT22;53624;0.000;0.000;2023-07-29T12:34:29;30.10;91.50
66710;DHT22;53624;0.000;0.000;2023-07-29T12:36:57;30.10;93.00
66710;DHT22;53624;0.000;0.000;2023-07-29T12:39:25;30.10;92.00
66710;DHT22;53624;0.000;0.000;2023-07-29T12:41:55;30.10;91.20
66710;DHT22;53624;0.000;0.000;2023-07-29T12:44:23;30.00;91.30
66710;DHT22;53624;0.000;0.000;2023-07-29T12:46:52;30.10;91.50
66710;DHT22;53624;0.000;0.000;2023-07-29T12:49:23;30.20;91.20
66710;DHT22;53624;0.000;0.000;2023-07-29T12:51:51;30.20;91.40
66710;DHT22;53624;0.000;0.000;2023-07-29T12:54:19;30.10;91.50
66710;DHT22;53624;0.000;0.000;2023-07-29T12:56:46;30.00;91.80
66710;DHT22;53624;0.000;0.000;2023-07-29T12:59:14;30.00;91.10
66710;DHT22;53624;0.000;0.000;2023-07-29T13:01:41;30.10;91.10
66710;DHT22;53624;0.000;0.000;2023-07-29T13:04:10;30.10;90.90
66710;DHT22;53624;0.000;0.000;2023-07-29T13:06:38;30.20;91.60
66710;DHT22;53624;0.000;0.000;2023-07-29T13:09:16;30.20;90.60
66710;DHT22;53624;0.000;0.000;2023-07-29T13:11:44;30.30;90.50
66710;DHT22;53624;0.000;0.000;2023-07-29T13:14:11;30.10;90.80
66710;DHT22;53624;0.000;0.000;2023-07-29T13:16:39;30.00;90.70
66710;DHT22;53624;0.000;0.000;2023-07-29T13:19:07;29.70;90.50
66710;DHT22;53624;0.000;0.000;2023-07-29T13:21:36;29.60;90.50
66710;DHT22;53624;0.000;0.000;2023-07-29T13:24:04;29.30;91.00
66710;DHT22;53624;0.000;0.000;2023-07-29T13:26:31;29.20;90.90
66710;DHT22;53624;0.000;0.000;2023-07-29T13:28:59;29.10;91.10
66710;DHT22;53624;0.000;0.000;2023-07-29T13:31:26;29.20;91.50
66710;DHT22;53624;0.000;0.000;2023-07-29T13:33:54;29.20;91.80
66710;DHT22;53624;0.000;0.000;2023-07-29T13:36:22;28.90;91.80
66710;DHT22;53624;0.000;0.000;2023-07-29T13:38:51;29.10;91.30
66710;DHT22;53624;0.000;0.000;2023-07-29T13:41:19;29.30;91.40
66710;DHT22;53624;0.000;0.000;2023-07-29T13:43:47;29.20;91.00
66710;DHT22;53624;0.000;0.000;2023-07-29T13:46:14;29.20;90.80
66710;DHT22;53624;0.000;0.000;2023-07-29T13:48:42;29.20;91.40
66710;DHT22;53624;0.000;0.000;2023-07-29T13:51:10;29.50;91.30
66710;DHT22;53624;0.000;0.000;2023-07-29T13:53:38;29.70;91.90
66710;DHT22;53624;0.000;0.000;2023-07-29T13:56:07;29.70;91.60
66710;DHT22;53624;0.000;0.000;2023-07-29T13:58:35;29.60;91.70
66710;DHT22;53624;0.000;0.000;2023-07-29T14:01:02;29.40;91.30
66710;DHT22;53624;0.000;0.000;2023-07-29T14:03:30;29.40;91.30
66710;DHT22;53624;0.000;0.000;2023-07-29T14:05:57;29.50;91.40
66710;DHT22;53624;0.000;0.000;2023-07-29T14:08:24;29.70;91.40
66710;DHT22;53624;0.000;0.000;2023-07-29T14:10:52;29.70;90.60
66710;DHT22;53624;0.000;0.000;2023-07-29T14:13:21;29.80;90.80
66710;DHT22;53624;0.000;0.000;2023-07-29T14:15:48;29.80;90.20
66710;DHT22;53624;0.000;0.000;2023-07-29T14:18:16;29.60;90.90
66710;DHT22;53624;0.000;0.000;2023-07-29T14:20:43;29.40;91.00
66710;DHT22;53624;0.000;0.000;2023-07-29T14:23:11;29.40;90.70
66710;DHT22;53624;0.000;0.000;2023-07-29T14:25:38;29.70;90.30
66710;DHT22;53624;0.000;0.000;2023-07-29T14:28:06;29.70;90.20
66710;DHT22;53624;0.000;0.000;2023-07-29T14:30:35;29.40;90.20
66710;DHT22;53624;0.000;0.000;2023-07-29T14:33:03;29.40;90.60
66710;DHT22;53624;0.000;0.000;2023-07-29T14:35:31;29.50;90.00
66710;DHT22;53624;0.000;0.000;2023-07-29T14:37:59;29.30;89.80
66710;DHT22;53624;0.000;0.000;2023-07-29T14:40:26;29.10;90.10
66710;DHT22;53624;0.000;0.000;2023-07-29T14:42:54;29.10;90.30
66710;DHT22;53624;0.000;0.000;2023-07-29T14:45:21;29.10;90.50
66710;DHT22;53624;0.000;0.000;2023-07-29T14:47:50;29.30;90.50
66710;DHT22;53624;0.000;0.000;2023-07-29T14:50:18;29.40;90.10
66710;DHT22;53624;0.000;0.000;2023-07-29T14:52:45;29.20;90.50
66710;DHT22;53624;0.000;0.000;2023-07-29T14:55:13;29.30;90.50
66710;DHT22;53624;0.000;0.000;2023-07-29T14:57:40;29.30;90.80
66710;DHT22;53624;0.000;0.000;2023-07-29T15:00:08;29.30;90.60
66710;DHT22;53624;0.000;0.000;2023-07-29T15:02:36;29.50;90.30
66710;DHT22;53624;0.000;0.000;2023-07-29T15:05:06;29.50;90.20
66710;DHT22;53624;0.000;0.000;2023-07-29T15:07:33;29.50;90.10
66710;DHT22;53624;0.000;0.000;2023-07-29T15:10:01;29.40;90.60
66710;DHT22;53624;0.000;0.000;2023-07-29T15:12:29;29.40;90.70
66710;DHT22;53624;0.000;0.000;2023-07-29T15:14:56;29.20;90.80
66710;DHT22;53624;0.000;0.000;2023-07-29T15:17:24;29.10;90.60
66710;DHT22;53624;0.000;0.000;2023-07-29T15:19:51;29.00;89.60
66710;DHT22;53624;0.000;0.000;2023-07-29T15:22:20;28.90;90.30
66710;DHT22;53624;0.000;0.000;2023-07-29T15:24:48;28.90;90.20
66710;DHT22;53624;0.000;0.000;2023-07-29T15:27:15;28.70;90.20
66710;DHT22;53624;0.000;0.000;2023-07-29T15:29:43;28.50;90.60
66710;DHT22;53624;0.000;0.000;2023-07-29T15:32:11;28.30;91.00
66710;DHT22;53624;0.000;0.000;2023-07-29T15:34:39;28.20;90.90
66710;DHT22;53624;0.000;0.000;2023-07-29T15:37:06;28.10;92.20
66710;DHT22;53624;0.000;0.000;2023-07-29T15:39:35;28.00;91.80
66710;DHT22;53624;0.000;0.000;2023-07-29T15:42:03;27.80;91.90
66710;DHT22;53624;0.000;0.000;2023-07-29T15:44:30;27.70;92.00
66710;DHT22;53624;0.000;0.000;2023-07-29T15:46:58;27.70;92.50
66710;DHT22;53624;0.000;0.000;2023-07-29T15:49:25;27.60;93.00
66710;DHT22;53624;0.000;0.000;2023-07-29T15:51:53;27.50;93.30
66710;DHT22;53624;0.000;0.000;2023-07-29T15:54:20;27.40;93.40
66710;DHT22;53624;0.000;0.000;2023-07-29T15:56:49;27.30;93.10